createdAt,value
2022-09-27T00:02:44.525Z,28.00
2022-09-27T00:06:43.014Z,28.00
2022-09-27T00:10:29.779Z,28.70
2022-09-27T00:14:08.444Z,27.60
2022-09-27T00:17:55.040Z,25.70
2022-09-27T00:21:51.274Z,31.60
2022-09-27T00:25:55.053Z,30.60
2022-09-27T00:29:34.539Z,29.10
2022-09-27T00:33:19.744Z,32.70
2022-09-27T00:37:23.507Z,34.20
2022-09-27T00:41:10.055Z,32.80
2022-09-27T00:44:56.303Z,34.10
2022-09-27T00:48:36.117Z,31.60
2022-09-27T00:52:23.409Z,32.20
2022-09-27T00:56:06.919Z,35.00
2022-09-27T00:59:46.224Z,35.30
2022-09-27T01:03:50.259Z,32.30
2022-09-27T01:07:36.363Z,31.10
2022-09-27T01:11:39.361Z,30.60
2022-09-27T01:15:46.569Z,34.10
2022-09-27T01:19:39.509Z,35.30
2022-09-27T01:23:53.481Z,38.90
2022-09-27T01:27:43.006Z,32.50
2022-09-27T01:31:38.531Z,32.40
2022-09-27T01:35:51.298Z,31.70
2022-09-27T01:39:22.775Z,34.80
2022-09-27T01:43:20.638Z,34.70
2022-09-27T01:47:18.127Z,34.90
2022-09-27T01:51:33.906Z,32.20
2022-09-27T01:55:37.858Z,33.80
2022-09-27T01:59:42.913Z,35.70
2022-09-27T02:03:42.987Z,38.20
2022-09-27T02:08:22.879Z,39.60
2022-09-27T02:12:15.944Z,40.80
2022-09-27T02:16:22.303Z,39.20
2022-09-27T02:20:47.350Z,38.40
2022-09-27T02:24:51.010Z,42.10
2022-09-27T02:28:48.551Z,41.60
2022-09-27T02:32:44.962Z,41.90
2022-09-27T02:36:48.811Z,39.20
2022-09-27T02:40:35.011Z,35.60
2022-09-27T02:44:45.029Z,37.10
2022-09-27T02:49:02.568Z,32.20
2022-09-27T02:53:08.387Z,34.10
2022-09-27T02:57:16.313Z,36.20
2022-09-27T03:01:32.445Z,38.00
2022-09-27T03:05:51.679Z,39.40
2022-09-27T03:09:48.154Z,41.20
2022-09-27T03:13:55.537Z,40.80
2022-09-27T03:18:01.275Z,40.70
2022-09-27T03:22:07.882Z,39.30
2022-09-27T03:26:04.683Z,38.10
2022-09-27T03:29:49.830Z,41.60
2022-09-27T03:33:23.442Z,36.30
2022-09-27T03:37:04.963Z,39.90
2022-09-27T03:41:03.259Z,41.10
2022-09-27T03:44:33.533Z,40.30
2022-09-27T03:48:12.801Z,42.40
2022-09-27T03:52:05.152Z,38.00
2022-09-27T03:56:09.086Z,40.10
2022-09-27T04:00:05.688Z,37.20
2022-09-27T04:04:08.813Z,36.30
2022-09-27T04:08:13.670Z,43.50
2022-09-27T04:11:48.246Z,46.60
2022-09-27T04:15:27.485Z,48.70
2022-09-27T04:19:29.765Z,46.70
2022-09-27T04:23:42.417Z,42.10
2022-09-27T04:27:18.435Z,42.10
2022-09-27T04:31:16.980Z,46.50
2022-09-27T04:35:25.282Z,37.30
2022-09-27T04:39:12.042Z,36.80
2022-09-27T04:42:58.990Z,39.00
2022-09-27T04:46:51.570Z,36.20
2022-09-27T04:50:54.088Z,43.00
2022-09-27T04:54:31.389Z,41.70
2022-09-27T04:58:01.997Z,43.10
2022-09-27T05:02:05.144Z,40.70
2022-09-27T05:06:11.657Z,43.00
2022-09-27T05:10:15.394Z,45.60
2022-09-27T05:14:09.144Z,44.00
2022-09-27T05:17:19.111Z,45.70
2022-09-27T05:21:31.860Z,46.90
2022-09-27T05:25:13.879Z,44.20
2022-09-27T05:29:10.554Z,39.20
2022-09-27T05:33:07.113Z,41.60
2022-09-27T05:37:01.700Z,41.60
2022-09-27T05:40:41.220Z,50.60
2022-09-27T05:44:45.673Z,43.30
2022-09-27T05:48:38.878Z,47.40
2022-09-27T05:52:35.825Z,49.20
2022-09-27T05:56:42.483Z,45.30
2022-09-27T06:01:04.303Z,44.70
2022-09-27T06:05:14.461Z,47.40
2022-09-27T06:09:36.566Z,46.30
2022-09-27T06:13:39.282Z,48.20
2022-09-27T06:17:43.032Z,47.10
2022-09-27T06:21:46.978Z,45.50
2022-09-27T06:25:51.036Z,52.10
2022-09-27T06:29:55.923Z,46.50
2022-09-27T06:33:58.554Z,45.90
2022-09-27T06:38:02.444Z,45.50
2022-09-27T06:41:56.169Z,44.60
2022-09-27T06:46:00.653Z,46.20
2022-09-27T06:50:03.232Z,45.70
2022-09-27T06:54:07.216Z,45.30
2022-09-27T06:58:00.024Z,49.20
2022-09-27T07:05:39.731Z,45.60
2022-09-27T07:09:52.320Z,44.20
2022-09-27T07:13:56.165Z,40.40
2022-09-27T07:17:50.957Z,42.10
2022-09-27T07:21:50.337Z,43.00
2022-09-27T07:25:54.114Z,39.60
2022-09-27T07:29:58.994Z,44.20
2022-09-27T07:34:02.781Z,43.50
2022-09-27T07:37:45.619Z,37.20
2022-09-27T07:41:32.295Z,38.10
2022-09-27T07:45:36.109Z,40.80
2022-09-27T07:49:26.434Z,34.20
2022-09-27T07:53:13.963Z,33.80
2022-09-27T07:57:08.308Z,33.80
2022-09-27T08:01:12.312Z,32.20
2022-09-27T08:05:09.156Z,33.50
2022-09-27T08:08:48.600Z,34.70
2022-09-27T08:12:45.429Z,33.50
2022-09-27T08:16:35.748Z,31.70
2022-09-27T08:20:51.658Z,26.90
2022-09-27T08:24:55.458Z,30.30
2022-09-27T08:29:16.093Z,25.00
2022-09-27T08:33:02.888Z,27.10
2022-09-27T08:36:43.014Z,24.70
2022-09-27T08:40:29.941Z,24.90
2022-09-27T08:44:33.776Z,25.00
2022-09-27T08:48:43.308Z,23.60
2022-09-27T08:52:30.921Z,25.10
2022-09-27T08:56:34.734Z,23.50
2022-09-27T09:00:38.569Z,25.10
2022-09-27T09:04:45.159Z,25.50
2022-09-27T09:08:55.245Z,25.30
2022-09-27T09:13:15.069Z,25.60
2022-09-27T09:16:58.143Z,26.30
2022-09-27T09:21:03.986Z,23.80
2022-09-27T09:25:13.340Z,25.40
2022-09-27T09:29:06.335Z,27.30
2022-09-27T09:33:05.492Z,27.10
2022-09-27T09:37:14.947Z,25.40
2022-09-27T09:41:24.415Z,31.90
2022-09-27T09:45:22.307Z,28.70
2022-09-27T09:49:32.579Z,27.70
2022-09-27T09:52:51.937Z,30.00
2022-09-27T09:56:45.891Z,29.60
2022-09-27T10:00:48.933Z,30.60
2022-09-27T10:05:03.909Z,30.60
2022-09-27T10:09:10.809Z,31.30
2022-09-27T10:12:21.956Z,28.00
2022-09-27T10:15:56.815Z,29.40
2022-09-27T10:19:52.726Z,25.50
2022-09-27T10:23:37.755Z,29.20
2022-09-27T10:27:41.501Z,28.10
2022-09-27T10:31:49.329Z,31.50
2022-09-27T10:35:49.325Z,30.90
2022-09-27T10:39:40.511Z,29.00
2022-09-27T10:43:38.433Z,27.90
2022-09-27T10:47:47.718Z,29.50
2022-09-27T10:52:03.453Z,27.10
2022-09-27T10:56:07.412Z,25.60
2022-09-27T11:03:54.650Z,26.50
2022-09-27T11:08:08.205Z,28.40
2022-09-27T11:12:14.594Z,26.80
2022-09-27T11:16:11.089Z,28.30
2022-09-27T11:20:16.668Z,28.10
2022-09-27T11:24:38.775Z,29.60
2022-09-27T11:28:42.729Z,30.60
2022-09-27T11:32:51.092Z,26.00
2022-09-27T11:36:42.393Z,24.70
2022-09-27T11:39:57.970Z,25.30
2022-09-27T11:43:20.847Z,28.60
2022-09-27T11:47:13.332Z,27.00
2022-09-27T11:51:13.206Z,27.30
2022-09-27T11:54:54.997Z,27.40
2022-09-27T11:58:55.645Z,28.60
2022-09-27T12:02:22.322Z,26.60
2022-09-27T12:05:58.285Z,26.40
2022-09-27T12:09:48.115Z,30.70
2022-09-27T12:13:13.677Z,28.50
2022-09-27T12:17:10.504Z,28.60
2022-09-27T12:20:44.075Z,27.70
2022-09-27T12:24:40.494Z,24.90
2022-09-27T12:28:33.394Z,24.20
2022-09-27T12:32:19.665Z,24.40
2022-09-27T12:36:25.889Z,27.90
2022-09-27T12:39:26.726Z,24.50
2022-09-27T12:42:47.760Z,21.50
2022-09-27T12:46:30.411Z,22.30
2022-09-27T12:50:10.143Z,22.30
2022-09-27T12:53:31.230Z,21.10
2022-09-27T12:57:22.003Z,20.70
2022-09-27T13:00:39.150Z,18.30
2022-09-27T13:04:30.097Z,18.60
2022-09-27T13:08:03.912Z,20.50
2022-09-27T13:12:04.775Z,22.40
2022-09-27T13:15:17.668Z,21.00
2022-09-27T13:18:44.337Z,22.80
2022-09-27T13:22:28.036Z,23.60
2022-09-27T13:26:03.855Z,26.50
2022-09-27T13:29:32.620Z,25.80
2022-09-27T13:33:31.678Z,25.90
2022-09-27T13:37:15.981Z,24.90
2022-09-27T13:44:40.102Z,27.40
2022-09-27T13:48:36.555Z,25.90
2022-09-27T13:52:51.719Z,25.80
2022-09-27T13:56:29.075Z,23.00
2022-09-27T14:00:21.746Z,23.20
2022-09-27T14:04:29.604Z,21.40
2022-09-27T14:08:25.196Z,24.00
2022-09-27T14:12:24.364Z,23.20
2022-09-27T14:16:21.194Z,23.50
2022-09-27T14:20:02.515Z,23.00
2022-09-27T14:23:54.587Z,24.30
2022-09-27T14:27:36.456Z,27.40
2022-09-27T14:31:45.506Z,26.00
2022-09-27T14:35:53.591Z,24.90
2022-09-27T14:40:03.325Z,27.50
2022-09-27T14:43:47.726Z,28.00
2022-09-27T14:47:51.708Z,26.30
2022-09-27T14:52:00.345Z,29.70
2022-09-27T14:55:55.443Z,25.00
2022-09-27T15:00:02.306Z,35.30
2022-09-27T15:04:02.335Z,28.90
2022-09-27T15:07:58.694Z,26.10
2022-09-27T15:11:45.597Z,28.40
2022-09-27T15:15:39.198Z,29.00
2022-09-27T15:19:13.895Z,29.50
2022-09-27T15:23:15.605Z,29.30
2022-09-27T15:27:22.035Z,27.60
2022-09-27T15:30:30.384Z,27.50
2022-09-27T15:34:02.232Z,24.90
2022-09-27T15:37:37.208Z,27.40
2022-09-27T15:41:25.738Z,26.00
2022-09-27T15:45:37.130Z,28.60
2022-09-27T15:49:39.326Z,27.60
2022-09-27T15:53:32.932Z,28.60
2022-09-27T15:57:30.762Z,24.80
2022-09-27T16:01:23.093Z,26.80
2022-09-27T16:05:10.035Z,29.00
2022-09-27T16:12:02.644Z,26.40
2022-09-27T16:15:19.203Z,29.30
2022-09-27T16:18:45.433Z,29.30
2022-09-27T16:22:26.947Z,25.90
2022-09-27T16:25:48.393Z,27.40
2022-09-27T16:29:40.147Z,28.90
2022-09-27T16:33:13.215Z,29.00
2022-09-27T16:36:45.306Z,28.30
2022-09-27T16:40:03.435Z,28.60
2022-09-27T16:43:16.759Z,25.40
2022-09-27T16:46:35.306Z,27.30
2022-09-27T16:50:19.876Z,26.30
2022-09-27T16:53:32.211Z,29.30
2022-09-27T16:57:11.921Z,30.50
2022-09-27T17:00:48.557Z,33.60
2022-09-27T17:03:48.670Z,30.90
2022-09-27T17:06:40.267Z,31.00
2022-09-27T17:10:13.901Z,32.00
2022-09-27T17:13:07.372Z,32.80
2022-09-27T17:16:33.686Z,35.40
2022-09-27T17:24:21.100Z,34.60
2022-09-27T17:28:00.075Z,21.50
2022-09-27T17:31:34.213Z,11.00
2022-09-27T17:35:22.215Z,8.90
2022-09-27T17:39:25.982Z,8.00
2022-09-27T17:43:23.148Z,9.60
2022-09-27T17:47:13.997Z,6.30
2022-09-27T17:50:50.617Z,6.50
2022-09-27T17:54:54.515Z,6.90
2022-09-27T17:58:29.382Z,4.90
2022-09-27T18:02:15.939Z,4.90
2022-09-27T18:06:12.555Z,5.40
2022-09-27T18:09:41.419Z,5.10
2022-09-27T18:13:16.404Z,6.30
2022-09-27T18:16:10.817Z,5.70
2022-09-27T18:19:37.701Z,11.50
2022-09-27T18:22:58.374Z,7.30
2022-09-27T18:26:27.650Z,10.00
2022-09-27T18:29:53.441Z,11.70
2022-09-27T18:33:30.079Z,8.90
2022-09-27T18:36:50.449Z,10.70
2022-09-27T18:40:38.095Z,11.30
2022-09-27T18:44:25.220Z,11.60
2022-09-27T18:48:00.852Z,10.20
2022-09-27T18:51:32.568Z,10.40
2022-09-27T18:55:29.648Z,11.60
2022-09-27T18:59:17.757Z,10.80
2022-09-27T19:03:15.485Z,11.40
2022-09-27T19:07:05.643Z,10.80
2022-09-27T19:11:09.726Z,12.80
2022-09-27T19:14:59.140Z,13.30
2022-09-27T19:18:28.526Z,13.40
2022-09-27T19:22:23.516Z,13.30
2022-09-27T19:26:20.339Z,11.90
2022-09-27T19:30:09.188Z,16.60
2022-09-27T19:34:02.204Z,13.20
2022-09-27T19:37:57.467Z,15.10
2022-09-27T19:41:34.177Z,15.40
2022-09-27T19:45:26.568Z,17.90
2022-09-27T19:48:50.354Z,16.10
2022-09-27T19:52:46.479Z,17.00
2022-09-27T19:56:37.676Z,16.90
2022-09-27T20:00:40.267Z,15.00
2022-09-27T20:04:04.602Z,17.10
2022-09-27T20:07:48.429Z,17.80
2022-09-27T20:11:41.999Z,19.70
2022-09-27T20:15:13.453Z,20.80
2022-09-27T20:19:08.849Z,17.50
2022-09-27T20:22:55.214Z,17.90
2022-09-27T20:26:33.855Z,14.70
2022-09-27T20:30:20.334Z,15.50
2022-09-27T20:33:56.025Z,14.90
2022-09-27T20:37:38.571Z,20.20
2022-09-27T20:41:16.398Z,17.70
2022-09-27T20:45:20.146Z,17.10
2022-09-27T20:49:23.911Z,14.10
2022-09-27T20:53:27.790Z,16.30
2022-09-27T20:57:46.442Z,18.20
2022-09-27T21:01:25.768Z,17.80
